Time;durP1;ratioP1;P1;durP2;ratioP2;P2;SDS_P1;SDS_P2;PMS_P1;PMS_P2;Temp;Humidity;BMP_temperature;BMP_pressure;BME280_temperature;BME280_humidity;BME280_pressure;Samples;Min_cycle;Max_cycle;Signal;HPM_P1;HPM_P2
2021/01/08 00:02:18;;;;;;;1.20;1.05;;;6.40;70.60;;;;;;5011547;28;20049;-73
2021/01/08 00:04:44;;;;;;;1.88;1.42;;;6.40;70.60;;;;;;5002987;28;20104;-72
2021/01/08 00:07:13;;;;;;;1.52;1.38;;;6.40;70.70;;;;;;5013086;28;20458;-72
2021/01/08 00:09:39;;;;;;;1.65;1.30;;;6.40;70.70;;;;;;5008253;28;20034;-72
2021/01/08 00:12:06;;;;;;;1.85;1.30;;;6.40;70.70;;;;;;5014147;28;20026;-72
2021/01/08 00:14:31;;;;;;;1.55;1.23;;;6.40;70.70;;;;;;5010875;28;20033;-73
2021/01/08 00:16:57;;;;;;;1.98;1.40;;;6.40;70.70;;;;;;5008026;28;20041;-74
2021/01/08 00:19:22;;;;;;;1.77;1.40;;;6.30;71.20;;;;;;5005950;28;20026;-73
2021/01/08 00:21:48;;;;;;;2.10;1.50;;;6.30;70.60;;;;;;5005393;28;20029;-73
2021/01/08 00:24:14;;;;;;;1.90;1.35;;;6.30;70.60;;;;;;5011951;28;20112;-73
2021/01/08 00:26:40;;;;;;;2.40;1.67;;;6.40;70.70;;;;;;5004132;28;20075;-73
2021/01/08 00:29:07;;;;;;;1.85;1.48;;;6.40;70.70;;;;;;5007412;28;20038;-73
2021/01/08 00:31:37;;;;;;;2.10;1.50;;;6.30;70.60;;;;;;5013175;28;20469;-73
2021/01/08 00:34:03;;;;;;;2.38;1.98;;;6.40;70.70;;;;;;5015843;28;20030;-73
2021/01/08 00:36:29;;;;;;;2.00;1.63;;;6.30;70.60;;;;;;5016466;28;20037;-73
2021/01/08 00:38:54;;;;;;;3.03;2.03;;;6.40;70.60;;;;;;5007316;28;20065;-73
2021/01/08 00:41:30;;;;;;;2.53;1.60;;;6.40;70.60;;;;;;5013753;28;20108;-73
2021/01/08 00:43:56;;;;;;;1.88;1.58;;;6.30;70.70;;;;;;5009107;28;20452;-73
2021/01/08 00:46:33;;;;;;;1.98;1.70;;;6.30;70.60;;;;;;5011331;28;20049;-74
2021/01/08 00:48:58;;;;;;;1.73;1.42;;;6.30;70.70;;;;;;5011232;28;20033;-73
2021/01/08 00:51:24;;;;;;;2.22;1.63;;;6.30;70.60;;;;;;5012895;28;20568;-73
2021/01/08 00:53:50;;;;;;;2.25;1.60;;;6.30;70.60;;;;;;5006719;28;20018;-73
2021/01/08 00:56:19;;;;;;;2.17;1.30;;;6.30;70.60;;;;;;5012374;28;20030;-73
2021/01/08 00:58:45;;;;;;;2.70;1.70;;;6.30;70.60;;;;;;5009367;28;20068;-73
2021/01/08 01:01:11;;;;;;;2.15;1.80;;;6.20;70.50;;;;;;5012371;28;20065;-73
2021/01/08 01:03:36;;;;;;;2.35;1.75;;;6.30;70.60;;;;;;5016732;28;20072;-73
2021/01/08 01:06:02;;;;;;;1.80;1.40;;;6.20;70.50;;;;;;5007421;28;20041;-73
2021/01/08 01:08:28;;;;;;;2.00;1.40;;;6.20;70.60;;;;;;5012639;28;20029;-73
2021/01/08 01:10:53;;;;;;;1.77;1.40;;;6.20;70.60;;;;;;5006502;28;20025;-74
2021/01/08 01:13:19;;;;;;;2.67;1.63;;;6.20;70.60;;;;;;4995802;28;20498;-74
2021/01/08 01:15:44;;;;;;;2.13;1.35;;;6.20;70.70;;;;;;5008903;28;20028;-74
2021/01/08 01:18:10;;;;;;;2.00;1.40;;;6.20;70.70;;;;;;5015006;28;20030;-73
2021/01/08 01:20:35;;;;;;;1.77;1.45;;;6.20;70.60;;;;;;5011603;28;20056;-73
2021/01/08 01:23:01;;;;;;;2.35;1.52;;;6.20;70.60;;;;;;5006087;28;20037;-74
2021/01/08 01:25:26;;;;;;;2.67;1.60;;;6.10;70.60;;;;;;5014212;28;20065;-74
2021/01/08 01:27:52;;;;;;;2.35;1.50;;;6.10;70.60;;;;;;5007756;28;20495;-73
2021/01/08 01:30:18;;;;;;;1.55;1.27;;;6.10;70.70;;;;;;5004903;28;20049;-73
2021/01/08 01:32:43;;;;;;;2.33;1.58;;;6.20;70.80;;;;;;5012454;28;20029;-73
2021/01/08 01:35:09;;;;;;;1.90;1.30;;;6.10;70.80;;;;;;5009689;28;20036;-73
2021/01/08 01:37:35;;;;;;;1.50;1.38;;;6.20;70.80;;;;;;5012388;28;20088;-73
2021/01/08 01:40:00;;;;;;;2.17;1.50;;;6.10;70.80;;;;;;5007738;28;20030;-74
2021/01/08 01:42:26;;;;;;;1.90;1.50;;;6.10;70.80;;;;;;5012845;28;20032;-73
2021/01/08 01:44:51;;;;;;;2.33;1.50;;;6.20;70.80;;;;;;5007016;28;20049;-74
2021/01/08 01:47:17;;;;;;;2.20;1.83;;;6.10;70.80;;;;;;5012976;28;20499;-73
2021/01/08 01:49:42;;;;;;;3.28;2.70;;;6.10;70.80;;;;;;5013972;28;20039;-73
2021/01/08 01:52:08;;;;;;;2.45;1.60;;;6.10;70.80;;;;;;5007586;28;20033;-73
2021/01/08 01:54:33;;;;;;;2.15;1.67;;;6.20;70.90;;;;;;5013459;28;20040;-73
2021/01/08 01:56:59;;;;;;;2.10;1.55;;;6.10;70.80;;;;;;5005897;28;20041;-73
2021/01/08 01:59:24;;;;;;;2.20;1.70;;;6.10;70.80;;;;;;5006785;28;20502;-73
2021/01/08 02:01:50;;;;;;;1.67;1.52;;;6.10;70.80;;;;;;5003070;28;20041;-73
2021/01/08 02:04:17;;;;;;;2.53;1.40;;;6.10;70.80;;;;;;5010535;28;20538;-73
2021/01/08 02:06:43;;;;;;;2.78;1.95;;;6.10;70.90;;;;;;5007423;28;20045;-73
2021/01/08 02:09:12;;;;;;;2.83;1.90;;;6.10;70.80;;;;;;5001945;28;20073;-73
2021/01/08 02:11:42;;;;;;;2.03;1.70;;;6.30;71.00;;;;;;5004720;28;20034;-73
2021/01/08 02:14:17;;;;;;;1.95;1.45;;;6.10;70.80;;;;;;4999130;28;20590;-73
2021/01/08 02:16:45;;;;;;;2.28;1.73;;;6.10;70.90;;;;;;5006899;28;20095;-73
2021/01/08 02:19:46;;;;;;;1.55;1.27;;;6.10;70.80;;;;;;4999147;28;20045;-73
2021/01/08 02:22:26;;;;;;;2.15;1.70;;;6.10;70.90;;;;;;4977454;28;20043;-73
2021/01/08 02:24:57;;;;;;;2.40;1.97;;;6.10;70.90;;;;;;5004606;28;20057;-73
2021/01/08 02:27:24;;;;;;;2.10;1.63;;;6.10;70.80;;;;;;5007981;28;20674;-74
2021/01/08 02:29:51;;;;;;;2.17;1.60;;;6.10;70.70;;;;;;5006113;28;20037;-73
2021/01/08 02:32:16;;;;;;;1.35;1.20;;;6.00;70.70;;;;;;5002744;28;20487;-73
2021/01/08 02:34:42;;;;;;;1.70;1.45;;;6.00;70.70;;;;;;5002693;28;20044;-73
2021/01/08 02:37:08;;;;;;;2.10;1.65;;;6.10;70.70;;;;;;5005247;28;20511;-73
2021/01/08 02:39:35;;;;;;;1.98;1.65;;;6.10;70.70;;;;;;5004876;28;20037;-73
2021/01/08 02:42:01;;;;;;;1.95;1.65;;;6.10;70.70;;;;;;4999839;28;20038;-73
2021/01/08 02:44:27;;;;;;;2.03;1.70;;;6.00;70.60;;;;;;5005453;28;20046;-73
2021/01/08 02:46:52;;;;;;;1.60;1.50;;;6.00;70.60;;;;;;5011251;28;20052;-73
2021/01/08 02:49:18;;;;;;;2.30;1.52;;;5.90;70.60;;;;;;5004769;28;20372;-73
2021/01/08 02:51:43;;;;;;;2.25;2.00;;;5.90;70.60;;;;;;5011572;28;20401;-73
2021/01/08 02:54:11;;;;;;;1.45;1.25;;;5.90;70.60;;;;;;5007577;28;20033;-74
2021/01/08 02:56:43;;;;;;;1.35;1.25;;;5.90;70.70;;;;;;5007702;28;20515;-73
2021/01/08 02:59:10;;;;;;;1.73;1.35;;;5.90;70.70;;;;;;4999633;28;20037;-73
2021/01/08 03:01:37;;;;;;;2.00;1.73;;;5.90;70.70;;;;;;5012500;28;20050;-73
2021/01/08 03:04:03;;;;;;;2.10;1.90;;;5.90;70.70;;;;;;5006810;28;20068;-73
2021/01/08 03:06:29;;;;;;;2.33;1.63;;;5.90;70.70;;;;;;5010760;28;20037;-73
2021/01/08 03:08:56;;;;;;;2.05;1.70;;;5.90;70.70;;;;;;5008774;28;20446;-73
2021/01/08 03:11:22;;;;;;;1.60;1.35;;;5.90;70.70;;;;;;5003609;28;20548;-73
2021/01/08 03:13:48;;;;;;;2.35;1.60;;;5.80;70.60;;;;;;5008836;28;20037;-73
2021/01/08 03:16:14;;;;;;;2.05;1.67;;;5.90;70.70;;;;;;5005182;28;20057;-73
2021/01/08 03:18:40;;;;;;;1.77;1.42;;;5.90;70.80;;;;;;5008786;28;20032;-73
2021/01/08 03:21:05;;;;;;;1.42;1.30;;;5.90;70.80;;;;;;5006117;28;20041;-73
2021/01/08 03:23:31;;;;;;;1.77;1.60;;;5.80;70.80;;;;;;5011328;28;20033;-73
2021/01/08 03:25:56;;;;;;;1.60;1.45;;;5.90;70.90;;;;;;5011089;28;20056;-73
2021/01/08 03:28:22;;;;;;;2.38;1.88;;;5.80;70.80;;;;;;5001881;28;20434;-73
2021/01/08 03:30:48;;;;;;;2.75;2.00;;;5.90;70.80;;;;;;5009719;28;20507;-73
2021/01/08 03:33:13;;;;;;;2.10;1.90;;;5.80;70.70;;;;;;5003396;28;20175;-73
2021/01/08 03:35:39;;;;;;;2.05;1.60;;;5.80;70.70;;;;;;5011147;28;20049;-73
2021/01/08 03:38:04;;;;;;;1.70;1.30;;;5.80;70.70;;;;;;5009052;28;20497;-73
2021/01/08 03:40:30;;;;;;;1.58;1.48;;;5.80;70.70;;;;;;5011189;28;20586;-74
2021/01/08 03:42:55;;;;;;;1.83;1.73;;;5.80;70.70;;;;;;5012774;28;20036;-73
2021/01/08 03:45:21;;;;;;;1.60;1.48;;;5.80;70.70;;;;;;5009899;28;20145;-73
2021/01/08 03:47:46;;;;;;;1.58;1.48;;;5.80;70.70;;;;;;5011427;28;20121;-73
2021/01/08 03:50:12;;;;;;;1.50;1.40;;;5.80;70.80;;;;;;5012045;28;20044;-73
2021/01/08 03:52:37;;;;;;;1.63;1.15;;;5.70;70.70;;;;;;5022630;28;20044;-73
2021/01/08 03:55:03;;;;;;;1.23;1.13;;;5.70;70.70;;;;;;5023007;28;20034;-73
2021/01/08 03:57:29;;;;;;;1.52;1.23;;;5.80;70.70;;;;;;5026015;28;20044;-73
2021/01/08 03:59:54;;;;;;;1.25;1.15;;;5.70;70.70;;;;;;5027424;28;20402;-73
2021/01/08 04:02:20;;;;;;;1.35;1.25;;;5.70;70.70;;;;;;5027146;28;20057;-73
2021/01/08 04:04:45;;;;;;;1.58;1.45;;;5.70;70.70;;;;;;5024273;28;20495;-73
2021/01/08 04:07:11;;;;;;;1.48;1.38;;;5.60;70.70;;;;;;5024481;28;20037;-73
2021/01/08 04:09:36;;;;;;;1.75;1.55;;;5.70;70.70;;;;;;5028369;28;20080;-73
2021/01/08 04:12:02;;;;;;;2.90;1.50;;;5.70;70.70;;;;;;5027883;28;20083;-73
2021/01/08 04:14:27;;;;;;;1.48;1.38;;;5.70;70.70;;;;;;5024523;28;20038;-73
2021/01/08 04:16:53;;;;;;;1.52;1.42;;;5.70;70.70;;;;;;5027426;28;20040;-73
2021/01/08 04:19:18;;;;;;;1.65;1.35;;;5.70;70.70;;;;;;5025862;28;20044;-73
2021/01/08 04:21:45;;;;;;;1.25;1.15;;;5.60;70.70;;;;;;5021826;28;20037;-73
2021/01/08 04:24:11;;;;;;;1.33;1.02;;;5.60;71.00;;;;;;5027449;28;20156;-74
2021/01/08 04:26:37;;;;;;;1.23;1.13;;;5.60;70.70;;;;;;5026248;28;20041;-73
2021/01/08 04:29:03;;;;;;;1.50;1.40;;;5.70;70.80;;;;;;5024444;28;20410;-73
2021/01/08 04:31:28;;;;;;;1.50;1.40;;;5.60;70.70;;;;;;5024702;28;20494;-73
2021/01/08 04:33:54;;;;;;;1.75;1.50;;;5.60;70.70;;;;;;5028144;28;20034;-73
2021/01/08 04:36:20;;;;;;;1.25;1.15;;;5.60;70.70;;;;;;5023662;28;20042;-73
2021/01/08 04:38:45;;;;;;;1.40;1.17;;;5.60;70.70;;;;;;5029660;28;20148;-73
2021/01/08 04:41:12;;;;;;;2.20;1.88;;;5.60;70.70;;;;;;5029833;28;20116;-73
2021/01/08 04:43:38;;;;;;;1.83;1.45;;;5.60;70.80;;;;;;5026957;28;20438;-73
2021/01/08 04:46:12;;;;;;;1.83;1.30;;;5.60;70.80;;;;;;5030268;28;20042;-73
2021/01/08 04:48:38;;;;;;;1.83;1.60;;;5.60;70.80;;;;;;5029932;28;20021;-73
2021/01/08 04:51:04;;;;;;;1.15;1.05;;;5.60;70.80;;;;;;5024687;28;20091;-73
2021/01/08 04:53:32;;;;;;;1.50;1.40;;;5.60;70.80;;;;;;5026719;28;20034;-73
2021/01/08 04:56:02;;;;;;;1.75;1.27;;;5.50;70.70;;;;;;5029247;28;20482;-73
2021/01/08 04:58:30;;;;;;;1.42;1.33;;;5.50;70.70;;;;;;5029618;28;20048;-73
2021/01/08 05:00:56;;;;;;;1.45;1.25;;;5.60;70.70;;;;;;5029374;28;20399;-73
2021/01/08 05:03:22;;;;;;;1.83;1.60;;;5.50;70.60;;;;;;5029543;28;20033;-73
2021/01/08 05:05:47;;;;;;;1.70;1.52;;;5.50;70.60;;;;;;5028376;28;20518;-73
2021/01/08 05:08:13;;;;;;;2.00;1.70;;;5.50;70.60;;;;;;5029856;28;20030;-73
2021/01/08 05:10:38;;;;;;;1.63;1.50;;;5.50;70.60;;;;;;5029435;28;20055;-72
2021/01/08 05:13:04;;;;;;;1.88;1.58;;;5.50;70.60;;;;;;5029399;28;20711;-73
2021/01/08 05:15:29;;;;;;;1.33;1.20;;;5.40;70.50;;;;;;5023499;28;20030;-72
2021/01/08 05:17:55;;;;;;;1.60;1.30;;;5.40;70.50;;;;;;5029281;28;20030;-73
2021/01/08 05:20:21;;;;;;;1.33;1.20;;;5.40;70.60;;;;;;5029310;28;20118;-73
2021/01/08 05:22:50;;;;;;;1.58;1.38;;;5.40;70.50;;;;;;5024841;28;20116;-73
2021/01/08 05:25:15;;;;;;;1.40;1.20;;;5.30;70.50;;;;;;5029565;28;20061;-73
2021/01/08 05:27:41;;;;;;;2.15;1.70;;;5.40;70.60;;;;;;5027547;28;20568;-73
2021/01/08 05:30:21;;;;;;;1.65;1.48;;;5.30;70.70;;;;;;5024426;28;20766;-73
2021/01/08 05:32:59;;;;;;;1.73;1.43;;;5.40;70.70;;;;;;5028046;28;20114;-73
2021/01/08 05:35:25;;;;;;;1.83;1.50;;;5.30;70.70;;;;;;5021956;28;20057;-73
2021/01/08 05:37:54;;;;;;;1.95;1.58;;;5.30;70.60;;;;;;5023784;28;20037;-73
2021/01/08 05:40:26;;;;;;;2.17;1.73;;;5.30;70.60;;;;;;5029184;28;20029;-74
2021/01/08 05:42:54;;;;;;;1.65;1.38;;;5.30;70.70;;;;;;5023472;28;20121;-73
2021/01/08 05:45:20;;;;;;;1.73;1.40;;;5.30;70.70;;;;;;5026738;28;20565;-73
2021/01/08 05:47:46;;;;;;;1.75;1.40;;;5.30;70.70;;;;;;5025251;28;20137;-73
2021/01/08 05:50:12;;;;;;;1.65;1.35;;;5.20;70.70;;;;;;5029160;28;20040;-74
2021/01/08 05:52:42;;;;;;;2.10;1.67;;;5.30;70.80;;;;;;5020795;28;20041;-73
2021/01/08 05:55:13;;;;;;;2.13;1.67;;;5.20;70.70;;;;;;5025270;28;20029;-74
2021/01/08 05:57:42;;;;;;;1.40;1.08;;;5.20;70.80;;;;;;5026869;28;20322;-74
2021/01/08 06:00:09;;;;;;;1.95;1.40;;;5.20;70.80;;;;;;5037626;23;20017;-71
2021/01/08 06:02:35;;;;;;;2.00;1.48;;;5.20;70.80;;;;;;5046935;28;20406;-72
2021/01/08 06:05:01;;;;;;;1.45;1.33;;;5.20;70.80;;;;;;5047669;28;20482;-72
2021/01/08 06:07:28;;;;;;;2.17;1.67;;;5.20;70.90;;;;;;5046895;28;20060;-72
2021/01/08 06:09:59;;;;;;;1.83;1.40;;;5.20;70.90;;;;;;5051301;28;20029;-70
2021/01/08 06:12:25;;;;;;;1.48;1.20;;;5.20;70.90;;;;;;5051876;28;20116;-71
2021/01/08 06:14:51;;;;;;;1.65;1.33;;;5.30;71.00;;;;;;5048199;28;20514;-74
2021/01/08 06:17:18;;;;;;;2.10;1.67;;;5.20;71.00;;;;;;5047787;28;20095;-72
2021/01/08 06:19:46;;;;;;;1.90;1.60;;;5.30;71.10;;;;;;5051936;28;20595;-72
2021/01/08 06:22:12;;;;;;;1.75;1.60;;;5.30;71.10;;;;;;5048935;28;20037;-71
2021/01/08 06:24:38;;;;;;;2.40;1.92;;;5.30;71.00;;;;;;5052953;28;20029;-71
2021/01/08 06:27:04;;;;;;;2.42;1.67;;;5.30;71.00;;;;;;5041528;28;20037;-71
2021/01/08 06:29:33;;;;;;;2.67;2.10;;;5.30;70.90;;;;;;5047410;28;20033;-71
2021/01/08 06:32:09;;;;;;;2.30;1.90;;;5.30;70.90;;;;;;5050193;28;20033;-72
2021/01/08 06:34:45;;;;;;;2.20;1.90;;;5.30;70.90;;;;;;5043607;28;20045;-72
2021/01/08 06:37:14;;;;;;;2.03;1.77;;;5.40;70.90;;;;;;5038303;28;20079;-73
2021/01/08 06:39:44;;;;;;;2.72;2.05;;;5.40;70.70;;;;;;5047475;28;20029;-72
2021/01/08 06:42:10;;;;;;;2.67;2.08;;;5.30;70.70;;;;;;5042642;28;20034;-71
2021/01/08 06:44:36;;;;;;;2.55;1.92;;;5.30;70.70;;;;;;5045142;28;20029;-71
2021/01/08 06:47:03;;;;;;;2.33;1.88;;;5.40;71.20;;;;;;5041059;28;20579;-72
2021/01/08 06:49:31;;;;;;;2.78;1.90;;;5.30;70.70;;;;;;5048958;28;20057;-72
2021/01/08 06:52:00;;;;;;;2.58;2.00;;;5.30;70.70;;;;;;5048537;28;20037;-73
2021/01/08 06:54:28;;;;;;;2.63;1.98;;;5.30;70.70;;;;;;5050244;28;20029;-71
2021/01/08 06:57:00;;;;;;;2.95;2.05;;;5.40;70.70;;;;;;5047595;28;20405;-71
2021/01/08 06:59:32;;;;;;;2.22;1.60;;;5.30;70.70;;;;;;5047824;28;20091;-71
2021/01/08 07:01:59;;;;;;;2.47;2.20;;;5.30;70.70;;;;;;5044976;28;20033;-72
2021/01/08 07:04:30;;;;;;;2.42;2.10;;;5.30;70.70;;;;;;5047719;28;20037;-72
2021/01/08 07:07:02;;;;;;;2.78;2.40;;;5.30;70.70;;;;;;5041415;28;20029;-71
2021/01/08 07:09:36;;;;;;;2.30;2.10;;;5.30;70.80;;;;;;5047118;28;20409;-71
2021/01/08 07:12:07;;;;;;;2.33;1.73;;;5.30;70.80;;;;;;5047251;28;20028;-71
2021/01/08 07:14:35;;;;;;;;;;;5.30;70.80;;;;;;5043848;28;20033;-71
2021/01/08 07:17:05;;;;;;;2.53;1.98;;;5.30;71.00;;;;;;5046860;28;19962;-71
2021/01/08 07:19:30;;;;;;;3.78;2.50;;;5.30;70.50;;;;;;5048508;28;20167;-71
2021/01/08 07:22:00;;;;;;;4.03;2.70;;;5.30;70.50;;;;;;5052106;28;20108;-72
2021/01/08 07:24:31;;;;;;;3.13;2.35;;;5.20;70.60;;;;;;5053387;28;20037;-72
2021/01/08 07:27:22;;;;;;;3.45;2.63;;;5.20;70.60;;;;;;5051663;28;20147;-73
2021/01/08 07:29:56;;;;;;;2.80;2.00;;;5.30;70.90;;;;;;5045659;28;20154;-76
2021/01/08 07:32:41;;;;;;;4.22;3.08;;;5.20;70.80;;;;;;5049876;28;20045;-75
2021/01/08 07:35:17;;;;;;;4.07;2.90;;;5.30;70.90;;;;;;5050191;28;20112;-77
2021/01/08 07:37:58;;;;;;;3.33;2.35;;;5.30;70.90;;;;;;5050626;28;20120;-74
2021/01/08 07:40:25;;;;;;;2.95;2.22;;;5.20;70.80;;;;;;5031367;28;20033;-78
2021/01/08 07:42:58;;;;;;;3.78;2.83;;;5.30;70.80;;;;;;5027156;28;20061;-76
2021/01/08 07:45:43;;;;;;;3.08;2.28;;;5.20;70.80;;;;;;5028541;28;20087;-77
2021/01/08 07:48:27;;;;;;;4.13;2.92;;;5.20;70.80;;;;;;5024772;28;20048;-78
2021/01/08 07:51:02;;;;;;;4.45;2.95;;;5.20;70.90;;;;;;5025847;28;20026;-78
2021/01/08 07:53:43;;;;;;;3.70;2.88;;;5.20;70.80;;;;;;5031840;28;20029;-74
2021/01/08 07:56:13;;;;;;;3.22;2.50;;;5.20;71.00;;;;;;5023624;28;20034;-78
2021/01/08 07:58:39;;;;;;;4.07;2.90;;;5.20;70.90;;;;;;5035421;28;20534;-77
2021/01/08 08:01:06;;;;;;;4.03;2.97;;;5.20;70.90;;;;;;5026082;28;20042;-75
2021/01/08 08:03:32;;;;;;;4.20;3.30;;;5.20;71.00;;;;;;5024972;28;20037;-77
2021/01/08 08:06:00;;;;;;;4.15;2.95;;;5.30;71.10;;;;;;5017655;28;20034;-75
2021/01/08 08:08:26;;;;;;;3.75;2.75;;;5.30;71.20;;;;;;5018083;28;20033;-75
2021/01/08 08:10:51;;;;;;;5.20;2.88;;;5.30;71.30;;;;;;5031037;28;20033;-76
2021/01/08 08:13:25;;;;;;;3.15;2.25;;;5.30;71.40;;;;;;5049103;28;20021;-75
2021/01/08 08:15:51;;;;;;;3.65;3.00;;;5.40;71.50;;;;;;5038925;28;20033;-76
2021/01/08 08:18:16;;;;;;;3.85;2.72;;;5.40;71.30;;;;;;5045430;28;20443;-76
2021/01/08 08:20:42;;;;;;;3.40;2.58;;;5.50;71.30;;;;;;5034935;28;20052;-73
2021/01/08 08:23:15;;;;;;;3.30;2.72;;;5.40;71.20;;;;;;5040091;28;20033;-75
2021/01/08 08:25:41;;;;;;;3.53;2.67;;;5.50;71.20;;;;;;5035182;28;20083;-74
2021/01/08 08:28:06;;;;;;;3.97;3.00;;;5.50;71.10;;;;;;5039825;28;20685;-74
2021/01/08 08:30:33;;;;;;;5.63;3.65;;;5.40;71.00;;;;;;5028039;28;20026;-74
2021/01/08 08:32:58;;;;;;;3.05;2.45;;;5.50;71.00;;;;;;5019365;28;20053;-75
2021/01/08 08:35:24;;;;;;;4.38;3.30;;;5.50;71.00;;;;;;5018697;28;20072;-75
2021/01/08 08:37:56;;;;;;;4.05;2.92;;;5.50;71.00;;;;;;5023223;28;20530;-75
2021/01/08 08:40:24;;;;;;;3.88;3.05;;;5.50;71.10;;;;;;5022059;28;20556;-74
2021/01/08 08:42:52;;;;;;;4.43;3.42;;;5.50;71.00;;;;;;5039242;28;20041;-73
2021/01/08 08:45:25;;;;;;;4.63;3.35;;;5.60;71.00;;;;;;5040368;28;20029;-74
2021/01/08 08:47:53;;;;;;;3.83;2.83;;;5.60;71.10;;;;;;5047850;28;20056;-75
2021/01/08 08:50:19;;;;;;;4.53;3.35;;;5.60;71.20;;;;;;5040601;28;20041;-75
2021/01/08 08:52:45;;;;;;;3.88;3.08;;;5.60;71.40;;;;;;5044018;28;20040;-74
2021/01/08 08:55:30;;;;;;;4.30;3.47;;;5.60;71.40;;;;;;5036108;28;20403;-74
2021/01/08 08:57:59;;;;;;;4.57;2.97;;;5.70;71.60;;;;;;5035180;28;20576;-75
2021/01/08 09:00:25;;;;;;;3.83;2.83;;;5.70;71.40;;;;;;5035376;28;20037;-75
2021/01/08 09:02:50;;;;;;;4.28;3.08;;;5.70;71.40;;;;;;5036150;28;20038;-74
2021/01/08 09:05:16;;;;;;;3.95;3.05;;;5.80;71.40;;;;;;5041981;28;20038;-75
2021/01/08 09:07:52;;;;;;;4.25;3.05;;;5.80;71.50;;;;;;5040730;28;20040;-74
2021/01/08 09:10:22;;;;;;;3.85;2.55;;;5.80;71.60;;;;;;5032136;28;20037;-75
2021/01/08 09:13:00;;;;;;;3.83;3.03;;;5.80;71.60;;;;;;5041005;28;20040;-74
2021/01/08 09:15:50;;;;;;;3.92;2.88;;;5.80;71.70;;;;;;5034450;28;20037;-75
2021/01/08 09:18:28;;;;;;;2.95;2.47;;;5.90;71.90;;;;;;5041058;28;20044;-75
2021/01/08 09:21:15;;;;;;;4.03;3.00;;;5.90;71.80;;;;;;5031288;28;20037;-75
2021/01/08 09:23:43;;;;;;;3.78;2.80;;;6.00;71.80;;;;;;5038954;28;20055;-76
2021/01/08 09:26:09;;;;;;;4.13;2.90;;;6.00;71.70;;;;;;5032855;28;20169;-76
2021/01/08 09:28:42;;;;;;;4.05;3.10;;;6.10;71.70;;;;;;5038944;28;20615;-76
2021/01/08 09:31:07;;;;;;;5.13;3.03;;;6.20;71.80;;;;;;5036531;28;20048;-76
2021/01/08 09:33:33;;;;;;;3.85;3.03;;;6.20;71.70;;;;;;5037891;28;20389;-76
2021/01/08 09:35:59;;;;;;;4.32;3.10;;;6.20;71.70;;;;;;5033971;28;20041;-76
2021/01/08 09:38:28;;;;;;;4.22;3.38;;;6.30;71.70;;;;;;5038641;28;20047;-76
2021/01/08 09:40:54;;;;;;;3.40;2.58;;;6.40;71.70;;;;;;5036459;28;20060;-74
2021/01/08 09:43:20;;;;;;;4.32;3.28;;;6.40;71.70;;;;;;5038844;28;20544;-75
2021/01/08 09:45:45;;;;;;;4.32;3.30;;;6.40;71.50;;;;;;5036471;28;20219;-73
2021/01/08 09:48:21;;;;;;;4.05;2.60;;;6.50;71.30;;;;;;5039265;28;20029;-74
2021/01/08 09:50:58;;;;;;;4.07;3.25;;;6.40;71.20;;;;;;5033894;28;20033;-74
2021/01/08 09:53:24;;;;;;;4.47;3.17;;;6.40;71.00;;;;;;5039204;28;20030;-74
2021/01/08 09:55:50;;;;;;;3.35;2.83;;;6.40;70.90;;;;;;5032264;28;20151;-76
2021/01/08 09:58:16;;;;;;;3.92;3.03;;;6.40;70.80;;;;;;5034952;28;20041;-74
2021/01/08 10:00:41;;;;;;;2.78;2.35;;;6.50;70.80;;;;;;5028917;28;20048;-74
2021/01/08 10:03:18;;;;;;;4.25;3.15;;;6.40;70.60;;;;;;5039008;28;20037;-75
2021/01/08 10:05:43;;;;;;;3.05;2.33;;;6.40;70.50;;;;;;5035292;28;20102;-74
2021/01/08 10:08:20;;;;;;;3.88;3.00;;;6.40;70.40;;;;;;5042321;28;20652;-75
2021/01/08 10:10:46;;;;;;;2.83;2.28;;;6.30;70.80;;;;;;5034744;28;20049;-75
2021/01/08 10:13:16;;;;;;;2.70;2.05;;;6.30;70.20;;;;;;5040271;28;20622;-74
2021/01/08 10:15:53;;;;;;;2.33;1.52;;;6.30;70.30;;;;;;5025610;28;20030;-75
2021/01/08 10:18:27;;;;;;;1.95;1.55;;;6.20;70.20;;;;;;5038047;28;20041;-74
2021/01/08 10:21:06;;;;;;;2.90;1.90;;;6.20;70.20;;;;;;5032052;28;20037;-74
2021/01/08 10:23:53;;;;;;;2.58;2.10;;;6.10;70.20;;;;;;5031781;28;20041;-75
2021/01/08 10:26:19;;;;;;;2.25;1.67;;;6.10;70.30;;;;;;5033975;28;20502;-74
2021/01/08 10:28:53;;;;;;;2.58;1.95;;;6.10;70.30;;;;;;5034430;28;20437;-75
2021/01/08 10:31:19;;;;;;;1.77;1.35;;;6.10;70.40;;;;;;5036045;28;20710;-73
2021/01/08 10:33:46;;;;;;;2.15;1.40;;;6.00;70.40;;;;;;5031706;28;20120;-74
2021/01/08 10:36:11;;;;;;;2.05;1.35;;;6.00;70.50;;;;;;5028356;28;20041;-74
2021/01/08 10:38:37;;;;;;;2.00;1.42;;;6.00;70.70;;;;;;5026991;28;20359;-75
2021/01/08 10:41:03;;;;;;;2.05;1.20;;;5.90;70.80;;;;;;5024244;28;20437;-76
2021/01/08 10:43:31;;;;;;;2.25;1.58;;;5.90;71.00;;;;;;5017996;28;20036;-75
2021/01/08 10:45:57;;;;;;;2.10;1.70;;;6.00;71.10;;;;;;5025250;28;20498;-74
2021/01/08 10:48:22;;;;;;;2.40;1.45;;;6.00;71.10;;;;;;5024469;28;20041;-74
2021/01/08 10:50:47;;;;;;;2.38;1.60;;;6.00;71.20;;;;;;5026220;28;20021;-75
2021/01/08 10:53:13;;;;;;;1.50;1.10;;;6.00;71.40;;;;;;5028385;28;20022;-75
2021/01/08 10:55:39;;;;;;;1.25;0.88;;;6.10;71.50;;;;;;5021202;28;20582;-75
2021/01/08 10:58:04;;;;;;;1.52;1.33;;;6.10;71.60;;;;;;5027179;28;20048;-74
2021/01/08 11:00:30;;;;;;;1.95;1.55;;;6.10;71.70;;;;;;5020093;28;20029;-75
2021/01/08 11:02:55;;;;;;;1.70;1.40;;;6.10;71.60;;;;;;5027267;28;20114;-74
2021/01/08 11:05:21;;;;;;;1.75;1.27;;;6.20;71.70;;;;;;5028604;28;20041;-75
2021/01/08 11:07:47;;;;;;;1.95;1.25;;;6.20;71.70;;;;;;5030154;28;20037;-74
2021/01/08 11:10:15;;;;;;;1.50;1.40;;;6.30;71.80;;;;;;5017758;28;20526;-74
2021/01/08 11:12:40;;;;;;;1.90;1.65;;;6.40;71.90;;;;;;5021675;28;20037;-75
2021/01/08 11:15:07;;;;;;;1.67;1.35;;;6.40;71.90;;;;;;5026265;28;20413;-76
2021/01/08 11:17:33;;;;;;;1.92;1.33;;;6.40;72.00;;;;;;5019769;28;20036;-75
2021/01/08 11:19:58;;;;;;;1.98;1.38;;;6.50;72.00;;;;;;5025860;28;20048;-74
2021/01/08 11:22:30;;;;;;;1.90;1.40;;;6.50;71.90;;;;;;5026425;28;20037;-74
2021/01/08 11:24:56;;;;;;;2.15;1.75;;;6.60;71.90;;;;;;5024132;28;20029;-75
2021/01/08 11:27:21;;;;;;;2.65;1.30;;;6.70;71.80;;;;;;5027632;28;20036;-74
2021/01/08 11:29:47;;;;;;;3.25;1.80;;;6.70;71.70;;;;;;5017579;28;20056;-72
2021/01/08 11:32:13;;;;;;;2.38;1.80;;;6.70;71.70;;;;;;5029186;28;20033;-71
2021/01/08 11:34:39;;;;;;;2.83;2.08;;;6.70;71.70;;;;;;5023738;28;20029;-73
2021/01/08 11:37:06;;;;;;;2.08;1.60;;;6.80;71.70;;;;;;5028832;28;20033;-71
2021/01/08 11:39:31;;;;;;;2.42;2.10;;;6.80;71.60;;;;;;5021315;28;20037;-71
2021/01/08 11:41:57;;;;;;;3.40;2.22;;;6.80;71.50;;;;;;5017040;28;20048;-72
2021/01/08 11:44:23;;;;;;;3.05;2.47;;;6.90;71.30;;;;;;5010981;28;20084;-72
2021/01/08 11:46:49;;;;;;;2.97;2.30;;;6.80;71.10;;;;;;5011183;28;20060;-71
2021/01/08 11:49:16;;;;;;;3.80;2.88;;;6.80;70.90;;;;;;5003270;28;20048;-72
2021/01/08 11:51:41;;;;;;;2.88;2.28;;;6.90;70.90;;;;;;5000776;28;20499;-72
2021/01/08 11:54:07;;;;;;;3.28;2.22;;;6.80;70.80;;;;;;5026200;28;20113;-72
2021/01/08 11:56:32;;;;;;;3.17;2.60;;;6.80;70.80;;;;;;5032503;28;20071;-73
2021/01/08 11:58:58;;;;;;;4.97;3.20;;;6.80;70.90;;;;;;5027547;28;20033;-73
2021/01/08 12:01:25;;;;;;;3.67;2.90;;;6.80;70.80;;;;;;5036162;28;20029;-72
2021/01/08 12:03:51;;;;;;;3.05;2.45;;;6.70;70.80;;;;;;5031139;28;20038;-72
2021/01/08 12:06:17;;;;;;;6.68;3.00;;;6.80;70.80;;;;;;5034616;28;20025;-73
2021/01/08 12:08:43;;;;;;;4.93;3.38;;;6.80;70.80;;;;;;5035305;28;20068;-72
2021/01/08 12:11:08;;;;;;;3.95;2.97;;;6.70;70.70;;;;;;5039786;28;20541;-72
2021/01/08 12:13:34;;;;;;;3.67;2.95;;;6.70;70.60;;;;;;5038465;28;20029;-73
2021/01/08 12:15:59;;;;;;;4.55;3.33;;;6.70;70.60;;;;;;5035080;28;20477;-73
2021/01/08 12:18:25;;;;;;;5.32;3.60;;;6.70;70.50;;;;;;5035142;28;20033;-72
2021/01/08 12:20:50;;;;;;;6.10;3.55;;;6.70;70.50;;;;;;5028216;28;20056;-72
2021/01/08 12:23:16;;;;;;;4.65;3.28;;;6.60;70.50;;;;;;5036039;28;20036;-72
2021/01/08 12:25:42;;;;;;;4.72;3.47;;;6.60;70.40;;;;;;5028744;28;20379;-72
2021/01/08 12:28:12;;;;;;;5.20;3.38;;;6.50;70.30;;;;;;5033990;28;20051;-73
2021/01/08 12:30:37;;;;;;;3.72;3.00;;;6.50;70.50;;;;;;5030975;28;20036;-73
2021/01/08 12:33:04;;;;;;;6.07;4.15;;;6.50;70.50;;;;;;5039046;28;20033;-72
2021/01/08 12:35:30;;;;;;;4.93;4.00;;;6.60;70.60;;;;;;5030192;28;20433;-72
2021/01/08 12:37:58;;;;;;;4.15;3.10;;;6.50;70.60;;;;;;5026549;28;20077;-72
2021/01/08 12:40:24;;;;;;;4.47;3.63;;;6.60;70.70;;;;;;5029111;28;20029;-73
2021/01/08 12:42:54;;;;;;;5.13;3.63;;;6.50;70.70;;;;;;5031824;28;20115;-73
2021/01/08 12:45:23;;;;;;;4.57;3.03;;;6.50;70.70;;;;;;5023266;28;20037;-74
2021/01/08 12:47:49;;;;;;;4.57;3.53;;;6.50;70.70;;;;;;5031121;28;20029;-74
2021/01/08 12:50:19;;;;;;;4.65;3.30;;;6.50;70.80;;;;;;5030381;28;20041;-76
2021/01/08 12:52:44;;;;;;;6.03;3.67;;;6.50;70.80;;;;;;5031300;28;20037;-75
2021/01/08 12:55:11;;;;;;;4.40;3.25;;;6.50;70.70;;;;;;5032836;28;20040;-76
2021/01/08 12:57:37;;;;;;;4.80;3.10;;;6.40;70.60;;;;;;5037628;28;20510;-74
2021/01/08 13:00:04;;;;;;;3.92;3.05;;;6.50;70.80;;;;;;5029798;28;20490;-75
2021/01/08 13:02:30;;;;;;;3.47;2.72;;;6.50;70.90;;;;;;5036412;28;20029;-75